Time;durP1;ratioP1;P1;durP2;ratioP2;P2;SDS_P1;SDS_P2;PMS_P1;PMS_P2;Temp;Humidity;BMP_temperature;BMP_pressure;BME280_temperature;BME280_humidity;BME280_pressure;Samples;Min_cycle;Max_cycle;Signal;HPM_P1;HPM_P2
2021/06/17 03:05:46;;;;;;;7.10;2.80;;;16.40;94.50;;;;;;6300918;22;20382;-96
2021/06/17 03:18:21;;;;;;;7.38;2.45;;;16.30;94.50;;;;;;6316169;22;20388;-96
2021/06/17 05:34:09;;;;;;;7.60;2.70;;;18.50;95.40;;;;;;6280425;22;20413;-96
2021/06/17 06:09:51;;;;;;;3.17;2.20;;;22.00;91.80;;;;;;6276121;22;20814;-96
2021/06/17 06:12:30;;;;;;;6.50;2.30;;;22.40;91.40;;;;;;6262268;22;20844;-96
2021/06/17 06:15:04;;;;;;;6.43;2.27;;;22.80;90.60;;;;;;6292099;22;20395;-96
2021/06/17 06:17:34;;;;;;;10.27;2.72;;;22.90;91.70;;;;;;6261287;22;20383;-96
2021/06/17 06:20:01;;;;;;;6.97;2.30;;;23.20;88.00;;;;;;6257338;22;20467;-96
2021/06/17 06:22:53;;;;;;;43.08;3.55;;;23.50;90.40;;;;;;6261846;22;20392;-96
2021/06/17 06:25:32;;;;;;;8.70;2.30;;;23.60;91.60;;;;;;6257468;22;20855;-96
2021/06/17 06:27:59;;;;;;;10.20;2.22;;;24.00;87.00;;;;;;6251808;22;20380;-96
2021/06/17 06:33:02;;;;;;;4.68;2.28;;;24.40;87.60;;;;;;6315723;22;20391;-96
2021/06/17 06:35:37;;;;;;;6.70;2.10;;;24.50;84.90;;;;;;6285758;22;20370;-96
2021/06/17 06:38:06;;;;;;;4.97;2.30;;;24.70;83.10;;;;;;6295909;22;20385;-95
2021/06/17 06:40:54;;;;;;;3.78;2.13;;;24.50;85.20;;;;;;6227977;22;20378;-96
2021/06/17 06:59:49;;;;;;;4.00;2.10;;;25.10;81.00;;;;;;6295304;22;20907;-96
2021/06/17 07:03:08;;;;;;;6.07;2.20;;;25.10;86.50;;;;;;6254294;22;20368;-96
2021/06/17 07:06:06;;;;;;;3.22;2.13;;;25.10;88.40;;;;;;6359047;22;20361;-95
2021/06/17 07:08:50;;;;;;;4.57;2.33;;;25.00;87.00;;;;;;6336865;22;20381;-96
2021/06/17 07:11:58;;;;;;;4.97;2.23;;;24.90;89.20;;;;;;6339646;22;20396;-96
2021/06/17 07:14:53;;;;;;;4.70;2.10;;;25.00;84.50;;;;;;6297114;22;20364;-95
2021/06/17 07:18:05;;;;;;;5.53;2.30;;;25.10;80.70;;;;;;6220180;23;20434;-95
2021/06/17 07:20:48;;;;;;;5.20;2.20;;;25.10;83.60;;;;;;6212542;23;20390;-96
2021/06/17 07:23:33;;;;;;;4.68;2.17;;;25.20;82.40;;;;;;6151359;23;20478;-96
2021/06/17 07:27:03;;;;;;;4.82;2.22;;;25.30;83.50;;;;;;6157818;23;20449;-96
2021/06/17 07:29:33;;;;;;;3.17;2.13;;;25.40;79.70;;;;;;6116791;23;20386;-95
2021/06/17 07:32:01;;;;;;;7.38;2.17;;;25.20;82.90;;;;;;6178567;23;20389;-96
2021/06/17 07:34:32;;;;;;;5.03;2.17;;;25.10;80.40;;;;;;6174646;23;20389;-96
2021/06/17 07:37:14;;;;;;;4.03;2.20;;;25.30;87.90;;;;;;6178941;23;20373;-96
2021/06/17 07:40:16;;;;;;;4.65;2.20;;;25.30;74.40;;;;;;6199804;23;20409;-96
2021/06/17 07:43:01;;;;;;;14.05;3.10;;;25.20;83.40;;;;;;6181295;23;20408;-96
2021/06/17 07:45:44;;;;;;;8.02;2.55;;;25.20;84.90;;;;;;6182080;23;21227;-96
2021/06/17 07:48:18;;;;;;;6.20;1.97;;;25.30;79.60;;;;;;6156270;23;20416;-96
2021/06/17 07:51:29;;;;;;;5.43;2.15;;;25.10;81.10;;;;;;6266305;22;20396;-96
2021/06/17 07:54:53;;;;;;;5.28;2.30;;;25.20;83.90;;;;;;6295687;22;20399;-96
2021/06/17 07:57:21;;;;;;;4.22;2.17;;;25.20;79.40;;;;;;6287735;22;20404;-96
2021/06/17 08:00:01;;;;;;;8.57;2.60;;;25.20;77.10;;;;;;6290581;22;20387;-96
2021/06/17 08:02:44;;;;;;;10.63;2.37;;;25.10;80.80;;;;;;6289381;22;20384;-96
2021/06/17 08:05:15;;;;;;;6.78;2.33;;;25.30;78.70;;;;;;6291446;22;20373;-95
2021/06/17 08:08:09;;;;;;;8.13;2.30;;;25.30;77.10;;;;;;6290973;22;20394;-96
2021/06/17 08:10:52;;;;;;;14.68;2.88;;;25.40;79.00;;;;;;6231260;23;20383;-96
2021/06/17 08:13:38;;;;;;;5.55;2.30;;;25.40;78.50;;;;;;6208395;23;20395;-97
2021/06/17 08:16:35;;;;;;;5.33;2.23;;;25.50;77.40;;;;;;6230759;22;20764;-96
2021/06/17 08:19:31;;;;;;;4.53;2.20;;;25.50;86.60;;;;;;6204861;23;20387;-96
2021/06/17 08:22:12;;;;;;;5.28;2.50;;;25.70;79.80;;;;;;6198820;23;20440;-96
2021/06/17 08:25:11;;;;;;;10.50;2.47;;;25.70;78.20;;;;;;6202627;23;20393;-96
2021/06/17 08:27:49;;;;;;;10.00;2.33;;;25.60;78.90;;;;;;6198530;23;20394;-95
2021/06/17 08:30:41;;;;;;;6.90;2.50;;;25.70;75.10;;;;;;6177989;22;20388;-95
2021/06/17 08:33:13;;;;;;;4.10;2.20;;;25.60;86.60;;;;;;6174847;23;20415;-96
2021/06/17 08:35:44;;;;;;;5.32;2.38;;;25.60;80.80;;;;;;6270556;22;20398;-96
2021/06/17 08:42:43;;;;;;;3.72;2.20;;;25.80;75.80;;;;;;6296478;22;20352;-96
2021/06/17 08:46:00;;;;;;;6.28;2.40;;;25.90;76.80;;;;;;6297560;22;20367;-96
2021/06/17 08:48:37;;;;;;;6.70;2.20;;;26.00;76.30;;;;;;6269876;22;20391;-96
2021/06/17 08:51:10;;;;;;;5.88;2.53;;;26.10;75.90;;;;;;6268845;22;20445;-96
2021/06/17 08:54:00;;;;;;;3.30;2.28;;;26.00;78.70;;;;;;6250403;22;20430;-96
2021/06/17 08:57:24;;;;;;;8.27;2.67;;;26.00;77.90;;;;;;6273984;22;20380;-96
2021/06/17 09:00:20;;;;;;;4.18;2.55;;;26.20;77.00;;;;;;6273257;22;20352;-96
2021/06/17 09:03:26;;;;;;;8.70;2.35;;;26.40;72.20;;;;;;6298557;22;20424;-96
2021/06/17 09:06:23;;;;;;;4.05;2.20;;;26.40;80.40;;;;;;6295740;22;20384;-96
2021/06/17 09:09:16;;;;;;;4.57;2.40;;;26.60;71.10;;;;;;6267459;22;20409;-96
2021/06/17 09:12:18;;;;;;;6.33;2.40;;;26.60;77.80;;;;;;6274089;22;20356;-96
2021/06/17 09:15:10;;;;;;;4.90;2.38;;;26.70;72.70;;;;;;6273184;22;20368;-96
2021/06/17 09:18:15;;;;;;;5.82;2.58;;;26.80;72.70;;;;;;6274562;22;20357;-96
2021/06/17 09:21:34;;;;;;;4.33;2.20;;;26.80;70.10;;;;;;6274321;22;20411;-96
2021/06/17 09:24:34;;;;;;;10.52;2.47;;;26.80;76.60;;;;;;6231827;23;20423;-96
2021/06/17 09:27:55;;;;;;;8.52;2.50;;;27.10;75.50;;;;;;6243513;23;20368;-96
2021/06/17 09:30:37;;;;;;;27.10;3.42;;;27.40;76.30;;;;;;6244330;23;20398;-96
2021/06/17 09:33:25;;;;;;;10.13;2.45;;;27.40;76.60;;;;;;6244292;22;20441;-96
2021/06/17 09:36:04;;;;;;;4.45;2.30;;;27.10;76.30;;;;;;6305378;22;20387;-94
2021/06/17 09:39:21;;;;;;;5.40;2.40;;;27.20;76.30;;;;;;6328715;22;20377;-96
2021/06/17 09:41:56;;;;;;;3.40;2.45;;;27.30;72.40;;;;;;6303774;22;20363;-96
2021/06/17 09:44:30;;;;;;;16.58;3.20;;;27.30;73.10;;;;;;6322514;22;20410;-96
2021/06/17 09:47:22;;;;;;;6.65;2.63;;;27.20;72.70;;;;;;6303296;22;20531;-96
2021/06/17 09:49:52;;;;;;;6.07;2.40;;;27.00;71.50;;;;;;6302620;22;20409;-96
2021/06/17 09:53:18;;;;;;;6.65;2.50;;;27.00;75.30;;;;;;6232132;23;20430;-96
2021/06/17 09:55:52;;;;;;;5.13;2.28;;;27.00;80.10;;;;;;6232095;23;20962;-96
2021/06/17 09:58:42;;;;;;;8.65;2.53;;;27.20;75.60;;;;;;6209402;23;20406;-96
2021/06/17 10:01:57;;;;;;;7.35;2.78;;;27.20;75.10;;;;;;6185411;23;20383;-96
2021/06/17 10:04:40;;;;;;;3.85;2.47;;;26.80;75.60;;;;;;6230028;23;20383;-96
2021/06/17 10:07:26;;;;;;;4.07;2.45;;;27.00;74.80;;;;;;6229747;23;20741;-96
2021/06/17 10:10:00;;;;;;;6.47;2.65;;;27.20;74.30;;;;;;6232164;23;20383;-96
2021/06/17 10:12:28;;;;;;;3.42;2.40;;;27.20;76.80;;;;;;6231837;23;20410;-96
2021/06/17 10:15:08;;;;;;;9.65;2.75;;;27.30;73.90;;;;;;6231947;23;20383;-96
2021/06/17 10:17:55;;;;;;;4.93;2.70;;;27.20;72.20;;;;;;6211099;23;20382;-96
2021/06/17 10:20:22;;;;;;;4.47;2.60;;;27.20;72.00;;;;;;6234232;23;20392;-96
2021/06/17 10:23:05;;;;;;;5.78;2.50;;;27.20;73.30;;;;;;6181105;23;20445;-96
2021/06/17 10:25:35;;;;;;;7.80;2.80;;;27.20;73.90;;;;;;6202384;23;20996;-96
2021/06/17 10:28:44;;;;;;;3.65;2.45;;;27.20;72.60;;;;;;6178498;23;20369;-96
2021/06/17 10:31:44;;;;;;;4.75;2.80;;;27.30;75.50;;;;;;6116969;23;20397;-94
2021/06/17 10:34:24;;;;;;;22.10;3.13;;;27.20;75.20;;;;;;6130363;23;20443;-96
2021/06/17 10:37:13;;;;;;;7.93;2.63;;;27.30;71.80;;;;;;6144023;23;20384;-94
2021/06/17 10:40:17;;;;;;;6.32;2.42;;;27.30;71.30;;;;;;6145916;23;20467;-96
2021/06/17 10:42:52;;;;;;;3.65;2.45;;;27.30;71.80;;;;;;6115422;23;20392;-96
2021/06/17 10:45:41;;;;;;;5.88;2.80;;;27.50;72.40;;;;;;6101212;23;20461;-96
2021/06/17 10:48:22;;;;;;;8.32;3.17;;;27.70;69.90;;;;;;6109449;23;20390;-96
2021/06/17 10:51:04;;;;;;;4.97;2.57;;;27.70;73.00;;;;;;6092648;23;20374;-96
2021/06/17 10:53:55;;;;;;;10.30;2.95;;;27.80;69.60;;;;;;6108513;23;20484;-96
2021/06/17 10:56:46;;;;;;;6.90;2.80;;;27.80;71.50;;;;;;6110961;23;20832;-96
2021/06/17 10:59:31;;;;;;;4.75;2.80;;;27.50;69.70;;;;;;6233242;22;20409;-96
2021/06/17 11:02:25;;;;;;;10.70;2.67;;;27.20;70.20;;;;;;6294823;22;20409;-96
2021/06/17 11:05:27;;;;;;;6.22;2.60;;;27.40;75.00;;;;;;6279995;22;20397;-96
2021/06/17 11:08:21;;;;;;;6.85;2.60;;;27.60;72.70;;;;;;6295391;22;20863;-96
2021/06/17 11:11:07;;;;;;;5.53;2.50;;;27.80;71.80;;;;;;6300516;22;20362;-96
2021/06/17 11:16:32;;;;;;;6.15;2.45;;;28.00;69.10;;;;;;6261030;23;20374;-96
2021/06/17 11:19:14;;;;;;;5.50;2.40;;;28.30;70.20;;;;;;6262010;23;20926;-96
2021/06/17 11:22:14;;;;;;;3.65;2.58;;;28.50;71.50;;;;;;6238898;22;20398;-96
2021/06/17 11:25:02;;;;;;;4.97;2.60;;;28.70;67.90;;;;;;6234927;23;20385;-96
2021/06/17 11:28:18;;;;;;;5.13;2.67;;;28.60;63.90;;;;;;6235396;23;20812;-96
2021/06/17 11:30:53;;;;;;;4.97;2.47;;;28.40;65.30;;;;;;6230428;23;20389;-96
2021/06/17 11:33:31;;;;;;;5.75;2.22;;;28.30;68.40;;;;;;6234256;23;20398;-96
2021/06/17 11:36:04;;;;;;;4.50;2.17;;;28.40;67.70;;;;;;6232493;23;20434;-96
2021/06/17 11:38:49;;;;;;;6.30;2.40;;;28.50;67.90;;;;;;6261995;23;20472;-95
2021/06/17 11:41:45;;;;;;;3.40;2.30;;;28.60;68.00;;;;;;6236771;23;20377;-96
2021/06/17 11:44:26;;;;;;;6.20;2.28;;;28.90;69.10;;;;;;6214475;23;20711;-96
2021/06/17 11:47:29;;;;;;;5.05;2.50;;;29.40;63.80;;;;;;6257814;23;20390;-96
2021/06/17 11:50:07;;;;;;;3.67;2.20;;;29.80;68.20;;;;;;6258543;23;20397;-96
2021/06/17 11:52:44;;;;;;;4.80;2.20;;;29.80;62.60;;;;;;6256898;23;20386;-95
2021/06/17 11:55:35;;;;;;;4.50;2.30;;;29.80;58.80;;;;;;6232906;23;20378;-96
2021/06/17 11:58:24;;;;;;;4.85;2.20;;;29.90;65.10;;;;;;6210136;23;20362;-96
2021/06/17 12:00:53;;;;;;;3.15;2.15;;;30.30;64.00;;;;;;6236456;23;20393;-95
2021/06/17 12:03:25;;;;;;;3.70;1.95;;;30.30;60.00;;;;;;6210886;23;20445;-96
2021/06/17 12:06:08;;;;;;;4.47;2.20;;;30.40;60.00;;;;;;6207261;23;20392;-96
2021/06/17 12:08:45;;;;;;;4.30;2.20;;;30.80;66.40;;;;;;6260483;23;20370;-96
2021/06/17 12:11:25;;;;;;;5.18;2.08;;;31.40;61.10;;;;;;6236226;23;20378;-96
2021/06/17 12:14:59;;;;;;;6.20;2.40;;;31.50;58.80;;;;;;6257412;22;20388;-96
2021/06/17 12:18:33;;;;;;;6.20;2.10;;;31.90;58.30;;;;;;6248932;22;20407;-96
2021/06/17 12:28:00;;;;;;;4.40;1.90;;;32.90;57.90;;;;;;6219409;23;20439;-94
2021/06/17 12:34:03;;;;;;;4.28;1.90;;;31.70;56.00;;;;;;6354098;22;20388;-96
2021/06/17 12:43:14;;;;;;;4.55;1.92;;;32.90;56.00;;;;;;6276427;22;20378;31
2021/06/17 12:46:39;;;;;;;5.85;1.90;;;33.30;52.70;;;;;;6261820;23;20381;-96
2021/06/17 12:55:26;;;;;;;24.23;3.15;;;32.60;52.80;;;;;;6288007;22;20432;-96
2021/06/17 12:59:12;;;;;;;5.63;2.38;;;33.10;56.20;;;;;;6333381;22;20365;-96
2021/06/17 13:04:40;;;;;;;4.28;1.95;;;33.60;55.70;;;;;;6305699;22;20382;-96
2021/06/17 13:07:39;;;;;;;11.30;2.58;;;33.60;50.40;;;;;;6303273;22;20377;-96
2021/06/17 13:10:23;;;;;;;5.80;1.90;;;33.60;52.80;;;;;;6301535;22;20342;-96
2021/06/17 13:13:31;;;;;;;4.63;2.08;;;33.40;51.80;;;;;;6279221;22;20382;-96
2021/06/17 13:16:01;;;;;;;2.83;1.85;;;33.20;55.00;;;;;;6326771;22;20378;-95
2021/06/17 13:18:31;;;;;;;3.30;2.00;;;33.30;52.70;;;;;;6301757;22;20396;-96
2021/06/17 13:21:17;;;;;;;5.10;2.10;;;33.20;52.00;;;;;;6278512;22;20394;-96
2021/06/17 13:23:59;;;;;;;4.90;2.10;;;32.60;51.10;;;;;;6281556;22;20403;-96
2021/06/17 13:26:32;;;;;;;4.82;2.20;;;32.10;53.90;;;;;;6303579;22;20389;-96
2021/06/17 13:29:19;;;;;;;29.23;3.50;;;32.80;52.70;;;;;;6305094;22;20391;-96
2021/06/17 13:31:50;;;;;;;29.53;3.63;;;33.00;54.30;;;;;;6326124;22;20453;-96
2021/06/17 13:34:19;;;;;;;13.85;2.70;;;33.60;56.20;;;;;;6300916;22;20449;-96
2021/06/17 13:36:50;;;;;;;5.45;2.13;;;33.90;50.30;;;;;;6330517;22;20378;-96
2021/06/17 13:40:07;;;;;;;5.30;2.20;;;34.00;52.70;;;;;;6326391;22;20390;-96
2021/06/17 13:42:57;;;;;;;10.10;2.50;;;34.00;48.60;;;;;;6301216;22;20367;-96
2021/06/17 13:46:04;;;;;;;4.72;2.10;;;33.70;51.00;;;;;;6328308;22;20404;-96
2021/06/17 13:49:15;;;;;;;4.55;1.90;;;33.90;52.40;;;;;;6127727;23;20490;-96
2021/06/17 13:51:44;;;;;;;5.40;1.80;;;34.20;53.90;;;;;;6148713;23;20479;-96
2021/06/17 13:57:40;;;;;;;3.70;1.88;;;34.30;48.50;;;;;;6324848;22;20398;-96
2021/06/17 14:00:25;;;;;;;4.40;2.00;;;34.50;48.00;;;;;;6213863;23;20384;-96
2021/06/17 14:03:09;;;;;;;5.22;2.10;;;33.40;51.50;;;;;;6211576;23;20403;-95
2021/06/17 14:06:21;;;;;;;5.23;2.03;;;32.60;48.90;;;;;;6212527;23;20458;-96
2021/06/17 14:09:58;;;;;;;5.35;2.00;;;32.50;57.60;;;;;;6190225;23;20430;-95
2021/06/17 14:13:32;;;;;;;8.68;2.10;;;33.60;52.40;;;;;;6186471;23;20430;-96
2021/06/17 14:17:08;;;;;;;2.90;2.03;;;34.30;53.30;;;;;;6241262;23;20374;-96
2021/06/17 14:49:30;;;;;;;34.83;3.57;;;35.90;43.70;;;;;;6294544;22;20390;-96
2021/06/17 14:56:27;;;;;;;14.02;2.58;;;34.30;45.80;;;;;;6277448;22;20445;-96
2021/06/17 14:59:52;;;;;;;6.68;2.10;;;32.50;48.60;;;;;;6327064;22;20440;-96
2021/06/17 15:05:39;;;;;;;8.90;2.30;;;32.10;50.70;;;;;;6324726;22;20382;-96
2021/06/17 15:08:20;;;;;;;5.22;2.10;;;32.40;52.90;;;;;;6273224;22;20432;-96
2021/06/17 15:19:46;;;;;;;5.43;2.40;;;33.20;50.60;;;;;;6321642;22;20889;-96
2021/06/17 15:22:14;;;;;;;3.97;2.00;;;32.30;47.40;;;;;;6317594;22;20428;-96
2021/06/17 15:28:15;;;;;;;3.92;2.30;;;32.10;48.70;;;;;;6308768;22;20469;-94
2021/06/17 15:30:43;;;;;;;4.03;2.20;;;32.30;49.40;;;;;;6311378;22;20811;-95
2021/06/17 15:33:11;;;;;;;14.90;2.90;;;32.20;51.20;;;;;;6307915;22;20386;-94
2021/06/17 15:35:40;;;;;;;11.03;2.47;;;32.70;53.40;;;;;;6308872;22;20772;-95
2021/06/17 15:38:07;;;;;;;6.27;2.33;;;33.00;51.00;;;;;;6315903;22;20410;-96
2021/06/17 15:40:35;;;;;;;5.47;2.10;;;33.10;50.50;;;;;;6307783;22;20387;-94
2021/06/17 15:43:02;;;;;;;6.13;2.22;;;32.50;47.70;;;;;;6306131;22;20386;-94
2021/06/17 15:45:29;;;;;;;5.28;2.20;;;32.30;49.20;;;;;;6306677;22;20470;-94
2021/06/17 15:47:57;;;;;;;7.90;2.40;;;32.10;50.80;;;;;;6306707;22;20409;-95
2021/06/17 15:50:25;;;;;;;6.32;2.30;;;33.00;49.00;;;;;;6307774;22;20367;-94
2021/06/17 15:53:01;;;;;;;6.78;2.38;;;33.30;48.30;;;;;;6306826;22;20374;-94
2021/06/17 15:55:29;;;;;;;5.35;2.30;;;33.40;48.10;;;;;;6306077;22;20389;-94
2021/06/17 15:57:58;;;;;;;3.63;2.20;;;33.60;52.00;;;;;;6305783;22;20847;-94
2021/06/17 16:00:25;;;;;;;7.47;2.20;;;33.30;48.70;;;;;;6306815;22;20387;-92
2021/06/17 16:02:53;;;;;;;6.53;2.17;;;32.90;50.60;;;;;;6306729;22;20378;-92
2021/06/17 16:05:21;;;;;;;7.15;2.30;;;33.00;50.20;;;;;;6306102;22;20401;-93
2021/06/17 16:07:50;;;;;;;11.68;2.78;;;32.80;49.40;;;;;;6306700;22;20390;-94
2021/06/17 16:10:20;;;;;;;3.78;2.10;;;32.10;50.60;;;;;;6306612;22;20371;-94
2021/06/17 16:12:49;;;;;;;12.18;2.42;;;31.90;49.00;;;;;;6306366;22;20683;-94
2021/06/17 16:15:17;;;;;;;6.15;2.30;;;31.90;48.70;;;;;;6306198;22;20463;-94
2021/06/17 16:17:52;;;;;;;3.60;2.40;;;31.90;52.40;;;;;;6306067;22;20382;-93
2021/06/17 16:20:26;;;;;;;3.17;1.90;;;32.40;54.00;;;;;;6306120;22;20941;-93
2021/06/17 16:22:54;;;;;;;6.53;2.45;;;32.70;48.90;;;;;;6306696;22;20385;-91
2021/06/17 16:25:22;;;;;;;7.45;2.47;;;32.20;50.90;;;;;;6306935;22;20402;-94
2021/06/17 16:27:53;;;;;;;9.40;2.70;;;31.80;49.30;;;;;;6307795;22;20750;-95
2021/06/17 16:30:20;;;;;;;4.70;2.30;;;31.20;51.40;;;;;;6309346;22;20382;-95
2021/06/17 16:32:48;;;;;;;3.72;2.30;;;31.10;54.30;;;;;;6310358;22;20839;-96
2021/06/17 16:35:16;;;;;;;17.55;2.72;;;31.00;52.00;;;;;;6323524;22;20393;-95
2021/06/17 16:37:46;;;;;;;6.05;2.42;;;31.20;52.50;;;;;;6329425;22;20768;-93
2021/06/17 16:40:18;;;;;;;8.45;2.60;;;31.80;55.00;;;;;;6310105;22;20780;-92
2021/06/17 16:42:46;;;;;;;3.22;2.17;;;32.10;49.30;;;;;;6307995;22;20758;-89
2021/06/17 16:45:14;;;;;;;3.30;2.13;;;31.90;51.10;;;;;;6308225;22;20394;-90
2021/06/17 16:47:41;;;;;;;5.10;2.33;;;31.60;49.80;;;;;;6308042;22;20368;-95
2021/06/17 16:50:11;;;;;;;9.43;2.67;;;31.60;50.80;;;;;;6286164;22;20386;-94
2021/06/17 16:52:39;;;;;;;5.68;2.70;;;31.40;50.40;;;;;;6312086;22;20432;-96
2021/06/17 16:55:10;;;;;;;5.38;2.30;;;31.10;51.50;;;;;;6315319;22;20378;-96
2021/06/17 16:57:37;;;;;;;8.35;2.35;;;30.80;52.00;;;;;;6312015;22;20389;-96
2021/06/17 17:00:08;;;;;;;20.27;3.53;;;30.50;53.20;;;;;;6309622;22;20382;-96
2021/06/17 17:02:36;;;;;;;9.55;2.75;;;30.60;53.10;;;;;;6320328;22;20410;-95
2021/06/17 17:05:07;;;;;;;8.90;2.33;;;30.60;53.30;;;;;;6318219;22;20403;-96
2021/06/17 17:08:08;;;;;;;8.63;2.30;;;30.20;52.10;;;;;;6319061;22;20871;-96
2021/06/17 17:10:44;;;;;;;6.22;2.15;;;29.80;53.10;;;;;;6316442;22;20421;-95
2021/06/17 17:13:14;;;;;;;5.50;2.47;;;29.80;56.90;;;;;;6309066;22;20378;-94
2021/06/17 17:15:41;;;;;;;4.32;2.38;;;30.20;54.00;;;;;;6311544;22;20386;-94
2021/06/17 17:18:08;;;;;;;5.45;2.35;;;30.20;54.70;;;;;;6308302;22;20388;-94
2021/06/17 17:20:35;;;;;;;8.60;2.40;;;30.20;55.80;;;;;;6308041;22;20382;-95
2021/06/17 17:23:02;;;;;;;10.85;2.67;;;30.20;53.20;;;;;;6307742;22;20383;-94
2021/06/17 17:25:29;;;;;;;7.60;2.50;;;29.90;54.40;;;;;;6307267;22;20394;-94
2021/06/17 17:27:57;;;;;;;5.93;2.40;;;29.50;57.60;;;;;;6307318;22;20378;-94
2021/06/17 17:30:24;;;;;;;5.90;2.53;;;29.40;55.30;;;;;;6309604;22;20382;-94
2021/06/17 17:32:53;;;;;;;6.30;2.25;;;29.10;55.80;;;;;;6309737;22;20673;-96
2021/06/17 17:35:20;;;;;;;13.73;3.40;;;28.90;56.30;;;;;;6307623;22;20383;-96
2021/06/17 17:37:47;;;;;;;17.95;3.58;;;28.60;56.40;;;;;;6308428;22;20409;-94
2021/06/17 17:40:15;;;;;;;21.90;3.22;;;28.40;57.40;;;;;;6306966;22;20453;-96
2021/06/17 17:42:44;;;;;;;10.10;2.45;;;28.30;58.80;;;;;;6307666;22;20387;-92
2021/06/17 17:45:11;;;;;;;6.13;2.40;;;28.50;58.90;;;;;;6308152;22;20405;-94
2021/06/17 17:47:38;;;;;;;7.40;2.28;;;28.40;57.70;;;;;;6307878;22;20385;-95
2021/06/17 17:50:09;;;;;;;6.90;2.60;;;28.20;58.10;;;;;;6307636;22;20386;-93
2021/06/17 17:52:37;;;;;;;2.78;2.03;;;27.70;62.90;;;;;;6307746;22;20458;-94
2021/06/17 17:55:07;;;;;;;6.63;2.67;;;27.20;64.10;;;;;;6307943;22;20881;-95
2021/06/17 17:57:34;;;;;;;41.83;4.93;;;26.70;65.60;;;;;;6307096;22;20379;-94
2021/06/17 18:00:03;;;;;;;9.30;2.88;;;26.30;66.60;;;;;;6307410;22;20391;-93
2021/06/17 18:02:30;;;;;;;5.15;2.25;;;26.20;67.50;;;;;;6307568;22;20382;-93
2021/06/17 18:04:58;;;;;;;4.82;2.28;;;25.80;66.90;;;;;;6308487;22;20401;-93
2021/06/17 18:07:25;;;;;;;5.65;2.40;;;25.80;65.30;;;;;;6307645;22;20416;-93
2021/06/17 18:10:00;;;;;;;5.05;2.50;;;25.80;64.80;;;;;;6307797;22;20387;-94
2021/06/17 18:12:28;;;;;;;8.10;2.57;;;25.80;65.60;;;;;;6307870;22;20386;-94
2021/06/17 18:15:25;;;;;;;6.30;2.70;;;25.60;65.20;;;;;;6318602;22;20375;-95
2021/06/17 18:18:02;;;;;;;5.50;2.42;;;25.40;66.20;;;;;;6316279;22;20409;-93
2021/06/17 18:20:55;;;;;;;7.57;2.70;;;25.30;66.70;;;;;;6306242;22;20382;-95
2021/06/17 18:26:05;;;;;;;17.43;3.30;;;24.90;68.00;;;;;;6284762;22;20392;-93
2021/06/17 18:32:12;;;;;;;6.22;2.65;;;24.50;65.90;;;;;;6319832;22;20394;-94
2021/06/17 18:41:12;;;;;;;15.30;2.75;;;24.00;69.00;;;;;;6311566;22;20438;-95
2021/06/17 18:43:47;;;;;;;8.00;2.97;;;23.60;70.20;;;;;;6299522;22;20385;-96
2021/06/17 18:46:17;;;;;;;8.43;2.83;;;23.30;70.30;;;;;;6267879;22;20859;-93
2021/06/17 18:53:12;;;;;;;37.60;3.33;;;22.70;72.90;;;;;;6310932;22;20650;-96
2021/06/17 19:04:38;;;;;;;10.80;2.63;;;21.90;75.50;;;;;;6262100;22;20383;-95
2021/06/17 19:15:51;;;;;;;7.22;3.00;;;21.20;78.70;;;;;;6239536;23;20418;-96
2021/06/17 19:24:57;;;;;;;10.27;2.70;;;20.80;79.00;;;;;;6246546;22;20416;-95
2021/06/17 19:27:28;;;;;;;6.95;2.85;;;20.80;79.50;;;;;;6260810;22;20384;-96
2021/06/17 19:29:55;;;;;;;7.05;2.55;;;20.70;78.80;;;;;;6253792;22;20380;-95
2021/06/17 19:32:23;;;;;;;4.20;2.47;;;20.70;79.40;;;;;;6253355;22;20388;-96
2021/06/17 19:34:54;;;;;;;8.07;2.40;;;20.70;79.10;;;;;;6254853;22;20384;-96
2021/06/17 19:37:22;;;;;;;5.22;2.53;;;20.60;80.00;;;;;;6256876;22;20932;-95
2021/06/17 19:39:53;;;;;;;5.82;2.58;;;20.60;80.70;;;;;;6259254;22;20415;-96
2021/06/17 19:42:24;;;;;;;4.90;2.80;;;20.50;79.30;;;;;;6256891;22;20387;-95
2021/06/17 19:44:52;;;;;;;12.57;3.00;;;20.50;80.90;;;;;;6253150;22;20396;-96
2021/06/17 19:47:20;;;;;;;6.38;2.80;;;20.40;79.90;;;;;;6253970;22;20384;-95
2021/06/17 19:49:47;;;;;;;5.75;2.75;;;20.30;82.40;;;;;;6253144;22;20383;-96
2021/06/17 19:52:16;;;;;;;5.13;2.65;;;20.30;80.30;;;;;;6253431;22;20380;-95
2021/06/17 19:54:55;;;;;;;6.68;2.50;;;20.30;82.70;;;;;;6255125;22;20976;-95
2021/06/17 19:57:23;;;;;;;6.72;2.58;;;20.20;82.70;;;;;;6256303;22;20394;-95
2021/06/17 19:59:51;;;;;;;5.13;2.70;;;20.20;82.00;;;;;;6257229;22;20469;-96
2021/06/17 20:02:24;;;;;;;11.57;2.65;;;20.10;82.80;;;;;;6255096;22;20408;-96
2021/06/17 20:04:52;;;;;;;6.70;2.90;;;20.20;82.10;;;;;;6252094;22;20406;-95
2021/06/17 20:07:19;;;;;;;10.23;3.08;;;20.10;82.10;;;;;;6253073;22;20877;-95
2021/06/17 20:09:47;;;;;;;23.15;3.45;;;20.10;82.10;;;;;;6253693;22;20733;-96
2021/06/17 20:12:17;;;;;;;7.25;2.70;;;20.10;82.10;;;;;;6253233;22;20380;-96
2021/06/17 20:14:45;;;;;;;6.53;2.60;;;20.10;82.50;;;;;;6253920;22;20468;-96
2021/06/17 20:17:12;;;;;;;5.45;2.45;;;20.10;82.90;;;;;;6254191;22;20474;-96
2021/06/17 20:19:39;;;;;;;7.20;2.55;;;20.00;82.60;;;;;;6253046;22;20391;-96
2021/06/17 20:22:08;;;;;;;6.55;2.40;;;20.00;83.40;;;;;;6252390;22;20392;-96
2021/06/17 20:24:36;;;;;;;6.97;2.50;;;19.80;84.00;;;;;;6252458;22;20388;-95
2021/06/17 20:27:04;;;;;;;7.33;2.70;;;19.70;85.20;;;;;;6252276;22;20384;-96
2021/06/17 20:29:31;;;;;;;5.35;2.75;;;19.60;84.50;;;;;;6254086;22;20459;-96
2021/06/17 20:31:58;;;;;;;7.85;2.70;;;19.60;86.60;;;;;;6254268;22;20384;-96
2021/06/17 20:34:26;;;;;;;7.60;2.75;;;19.60;85.70;;;;;;6251966;22;20717;-96
2021/06/17 20:36:55;;;;;;;7.60;2.78;;;19.50;86.80;;;;;;6254067;22;20380;-96
2021/06/17 20:39:24;;;;;;;4.30;2.60;;;19.50;86.50;;;;;;6255580;22;20411;-96
2021/06/17 20:41:53;;;;;;;10.18;2.75;;;19.50;86.60;;;;;;6255061;22;20380;-96
2021/06/17 20:44:20;;;;;;;7.60;2.90;;;19.50;86.10;;;;;;6255110;22;20388;-96
2021/06/17 20:53:17;;;;;;;9.45;2.80;;;19.50;86.40;;;;;;6269569;22;20369;-96
2021/06/17 20:59:51;;;;;;;6.93;2.80;;;19.50;87.50;;;;;;6312357;22;20721;-96
2021/06/17 21:02:43;;;;;;;5.97;2.72;;;19.50;86.60;;;;;;6293210;22;20387;-96
2021/06/17 21:05:15;;;;;;;5.90;2.73;;;19.50;88.20;;;;;;6304032;22;20370;-96
2021/06/17 21:10:32;;;;;;;5.55;2.55;;;19.30;89.00;;;;;;6267341;22;20374;-96
2021/06/17 21:13:38;;;;;;;6.43;2.90;;;19.30;88.00;;;;;;6289919;22;20396;-96
2021/06/17 21:16:23;;;;;;;8.30;3.03;;;19.20;88.50;;;;;;6287923;22;20357;-97
2021/06/17 21:19:18;;;;;;;6.18;2.70;;;19.20;88.00;;;;;;6306608;22;20449;-96
2021/06/17 21:25:47;;;;;;;6.13;2.70;;;19.10;90.10;;;;;;6276438;22;20390;-96
2021/06/17 21:31:08;;;;;;;5.93;2.60;;;19.00;89.30;;;;;;6286526;22;20388;-96
2021/06/17 21:33:37;;;;;;;4.85;2.58;;;19.20;89.30;;;;;;6270355;22;20384;-95
2021/06/17 21:36:11;;;;;;;5.13;2.67;;;19.20;89.70;;;;;;6245359;22;20384;-95
2021/06/17 21:38:39;;;;;;;6.00;2.78;;;19.10;89.10;;;;;;6293227;22;20373;-95
2021/06/17 21:41:07;;;;;;;6.20;2.72;;;19.10;90.30;;;;;;6295276;22;20373;-95
2021/06/17 21:43:39;;;;;;;4.35;2.88;;;19.00;90.00;;;;;;6292698;22;20465;-96
2021/06/17 21:46:07;;;;;;;5.88;2.70;;;19.00;90.00;;;;;;6271594;22;20400;-95
2021/06/17 21:48:49;;;;;;;5.65;2.80;;;19.00;90.00;;;;;;6300416;22;20382;-96
2021/06/17 21:51:33;;;;;;;5.88;2.90;;;19.00;89.60;;;;;;6290149;22;20372;-96
2021/06/17 21:54:25;;;;;;;5.18;3.00;;;19.00;90.50;;;;;;6266411;22;20394;-96
2021/06/17 21:59:34;;;;;;;5.57;2.97;;;18.90;91.40;;;;;;6299582;22;20407;-96
2021/06/17 22:02:05;;;;;;;8.55;3.38;;;18.90;90.50;;;;;;6273223;22;20383;-95
2021/06/17 22:04:34;;;;;;;4.43;2.80;;;18.90;91.00;;;;;;6296158;22;20423;-95
2021/06/17 22:07:02;;;;;;;5.75;3.17;;;18.90;90.50;;;;;;6270471;22;20424;-96
2021/06/17 22:09:33;;;;;;;6.75;3.42;;;19.00;90.80;;;;;;6204561;23;20390;-96
2021/06/17 22:12:15;;;;;;;4.72;3.13;;;19.00;90.50;;;;;;6158288;23;20412;-96
2021/06/17 22:14:47;;;;;;;7.13;3.45;;;18.90;90.60;;;;;;6179744;23;20489;-96
2021/06/17 22:17:28;;;;;;;6.75;2.88;;;18.80;90.80;;;;;;6160275;23;20392;-96
2021/06/17 22:19:59;;;;;;;7.43;3.00;;;18.60;91.80;;;;;;6178508;23;20385;-96
2021/06/17 22:22:36;;;;;;;7.80;3.15;;;18.50;91.40;;;;;;6179236;23;20393;-96
2021/06/17 22:25:38;;;;;;;4.50;3.10;;;18.50;91.90;;;;;;6166541;23;20400;-96
2021/06/17 22:28:07;;;;;;;5.35;3.30;;;18.60;91.50;;;;;;6258737;22;20384;-96
2021/06/17 22:30:47;;;;;;;5.85;3.10;;;18.60;91.60;;;;;;6273992;22;20454;-96
2021/06/17 22:33:31;;;;;;;8.00;3.33;;;18.60;92.00;;;;;;6254179;22;20380;-96
2021/06/17 22:36:07;;;;;;;5.53;3.20;;;18.70;91.20;;;;;;6271453;22;20392;-96
2021/06/17 22:38:54;;;;;;;7.17;3.20;;;18.80;91.20;;;;;;6254724;22;20383;-96
2021/06/17 22:41:28;;;;;;;5.82;3.40;;;18.80;91.30;;;;;;6272129;22;20393;-96
2021/06/17 22:44:12;;;;;;;6.07;3.25;;;18.80;91.60;;;;;;6262001;22;20388;-96